createdAt,value
2023-11-28T00:00:05.886Z,109.13
2023-11-28T00:02:40.340Z,110.97
2023-11-28T00:05:08.202Z,113.97
2023-11-28T00:07:35.750Z,115.10
2023-11-28T00:10:03.273Z,100.03
2023-11-28T00:12:30.729Z,109.60
2023-11-28T00:14:58.263Z,104.47
2023-11-28T00:17:25.731Z,109.30
2023-11-28T00:19:53.231Z,110.10
2023-11-28T00:22:20.729Z,106.00
2023-11-28T00:24:48.159Z,103.03
2023-11-28T00:27:16.374Z,104.23
2023-11-28T00:29:43.848Z,111.30
2023-11-28T00:32:14.123Z,105.13
2023-11-28T00:34:42.600Z,113.47
2023-11-28T00:37:10.357Z,110.77
2023-11-28T00:39:38.073Z,120.03
2023-11-28T00:42:06.937Z,103.90
2023-11-28T00:44:34.636Z,117.83
2023-11-28T00:47:03.322Z,114.10
2023-11-28T00:49:33.332Z,127.87
2023-11-28T00:52:02.466Z,127.20
2023-11-28T00:54:30.613Z,126.67
2023-11-28T00:56:59.068Z,125.57
2023-11-28T00:59:27.002Z,123.90
2023-11-28T01:01:55.449Z,124.67
2023-11-28T01:04:23.434Z,120.97
2023-11-28T01:06:50.846Z,119.83
2023-11-28T01:09:18.284Z,117.07
2023-11-28T01:11:45.692Z,108.80
2023-11-28T01:14:13.186Z,114.70
2023-11-28T01:16:40.639Z,108.47
2023-11-28T01:19:08.181Z,92.33
2023-11-28T01:21:35.564Z,101.17
2023-11-28T01:24:03.004Z,99.73
2023-11-28T01:26:30.417Z,98.60
2023-11-28T01:28:57.924Z,109.67
2023-11-28T01:31:26.181Z,98.37
2023-11-28T01:33:53.742Z,98.37
2023-11-28T01:36:21.938Z,96.80
2023-11-28T01:38:50.214Z,101.00
2023-11-28T01:41:17.642Z,97.93
2023-11-28T01:43:45.122Z,101.63
2023-11-28T01:46:13.306Z,89.30
2023-11-28T01:48:41.195Z,100.73
2023-11-28T01:51:09.514Z,96.90
2023-11-28T01:53:37.997Z,99.17
2023-11-28T01:56:05.760Z,87.80
2023-11-28T01:58:33.341Z,98.77
2023-11-28T02:01:01.948Z,103.40
2023-11-28T02:03:29.631Z,106.73
2023-11-28T02:05:57.680Z,98.67
2023-11-28T02:08:25.036Z,100.83
2023-11-28T02:10:52.470Z,97.83
2023-11-28T02:13:20.510Z,104.33
2023-11-28T02:15:48.315Z,93.67
2023-11-28T02:18:16.015Z,100.70
2023-11-28T02:20:44.012Z,99.83
2023-11-28T02:23:11.527Z,98.40
2023-11-28T02:25:45.381Z,102.93
2023-11-28T02:28:17.441Z,97.80
2023-11-28T02:30:47.790Z,104.77
2023-11-28T02:33:15.453Z,103.27
2023-11-28T02:35:43.521Z,102.07
2023-11-28T02:38:11.256Z,98.50
2023-11-28T02:40:38.667Z,99.37
2023-11-28T02:43:06.166Z,101.10
2023-11-28T02:45:33.863Z,92.90
2023-11-28T02:48:01.301Z,105.43
2023-11-28T02:50:28.813Z,104.77
2023-11-28T02:52:56.533Z,93.43
2023-11-28T02:55:23.980Z,100.67
2023-11-28T02:57:52.707Z,98.53
2023-11-28T03:00:20.175Z,93.87
2023-11-28T03:02:47.765Z,98.43
2023-11-28T03:05:15.455Z,97.80
2023-11-28T03:07:42.967Z,101.67
2023-11-28T03:10:10.403Z,94.80
2023-11-28T03:12:37.950Z,83.40
2023-11-28T03:15:05.622Z,95.03
2023-11-28T03:17:33.322Z,104.27
2023-11-28T03:20:00.861Z,90.77
2023-11-28T03:22:28.518Z,93.67
2023-11-28T03:24:56.072Z,95.63
2023-11-28T03:27:23.433Z,96.17
2023-11-28T03:29:50.782Z,93.87
2023-11-28T03:32:18.299Z,90.43
2023-11-28T03:34:45.943Z,97.93
2023-11-28T03:37:13.311Z,88.63
2023-11-28T03:39:43.857Z,86.80
2023-11-28T03:42:11.411Z,98.07
2023-11-28T03:44:39.278Z,98.23
2023-11-28T03:47:07.297Z,91.73
2023-11-28T03:49:34.851Z,89.17
2023-11-28T03:52:02.460Z,88.00
2023-11-28T03:54:30.126Z,88.67
2023-11-28T03:56:57.516Z,79.60
2023-11-28T03:59:24.880Z,84.53
2023-11-28T04:01:53.524Z,87.97
2023-11-28T04:04:21.349Z,87.77
2023-11-28T04:06:49.101Z,82.27
2023-11-28T04:09:16.501Z,89.43
2023-11-28T04:11:43.941Z,95.30
2023-11-28T04:14:11.487Z,86.43
2023-11-28T04:16:39.220Z,81.70
2023-11-28T04:19:08.391Z,81.47
2023-11-28T04:21:35.982Z,86.90
2023-11-28T04:24:04.190Z,76.00
2023-11-28T04:26:31.756Z,83.67
2023-11-28T04:28:59.238Z,76.63
2023-11-28T04:31:28.979Z,78.33
2023-11-28T04:34:00.695Z,73.70
2023-11-28T04:36:28.414Z,80.27
2023-11-28T04:38:56.516Z,83.13
2023-11-28T04:41:23.897Z,76.50
2023-11-28T04:43:51.932Z,74.97
2023-11-28T04:46:19.379Z,76.37
2023-11-28T04:48:46.904Z,70.97
2023-11-28T04:51:14.317Z,81.97
2023-11-28T04:53:41.868Z,66.70
2023-11-28T04:56:09.724Z,75.27
2023-11-28T04:58:37.366Z,70.33
2023-11-28T05:01:05.498Z,74.47
2023-11-28T05:03:33.152Z,77.93
2023-11-28T05:06:00.756Z,71.13
2023-11-28T05:08:28.271Z,68.73
2023-11-28T05:10:55.740Z,73.73
2023-11-28T05:13:23.234Z,68.90
2023-11-28T05:15:51.141Z,67.93
2023-11-28T05:18:19.450Z,65.40
2023-11-28T05:20:47.124Z,64.27
2023-11-28T05:23:14.516Z,63.93
2023-11-28T05:25:43.970Z,62.50
2023-11-28T05:28:11.342Z,60.53
2023-11-28T05:30:39.695Z,66.20
2023-11-28T05:33:07.257Z,64.37
2023-11-28T05:35:35.231Z,64.80
2023-11-28T05:38:02.753Z,64.40
2023-11-28T05:40:30.420Z,67.07
2023-11-28T05:43:00.416Z,60.30
2023-11-28T05:45:28.964Z,66.23
2023-11-28T05:47:56.714Z,63.27
2023-11-28T05:50:24.464Z,59.57
2023-11-28T05:52:52.842Z,66.23
2023-11-28T05:55:22.161Z,62.40
2023-11-28T05:57:50.558Z,62.00
2023-11-28T06:00:19.403Z,63.30
2023-11-28T06:02:48.398Z,71.57
2023-11-28T06:05:15.976Z,62.00
2023-11-28T06:07:44.790Z,65.57
2023-11-28T06:10:14.570Z,61.83
2023-11-28T06:12:42.120Z,66.17
2023-11-28T06:15:09.999Z,69.17
2023-11-28T06:17:37.746Z,68.17
2023-11-28T06:20:06.178Z,64.73
2023-11-28T06:22:34.336Z,71.83
2023-11-28T06:25:01.826Z,61.33
2023-11-28T06:27:29.451Z,65.70
2023-11-28T06:29:56.925Z,65.67
2023-11-28T06:32:24.384Z,67.43
2023-11-28T06:34:51.999Z,62.97
2023-11-28T06:37:19.635Z,70.67
2023-11-28T06:39:48.599Z,67.27
2023-11-28T06:42:17.051Z,63.13
2023-11-28T06:44:44.857Z,66.83
2023-11-28T06:47:12.256Z,63.57
2023-11-28T06:49:40.067Z,69.23
2023-11-28T06:52:07.630Z,64.90
2023-11-28T06:54:35.158Z,69.90
2023-11-28T06:57:02.577Z,62.90
2023-11-28T06:59:29.999Z,63.67
2023-11-28T07:01:57.574Z,62.13
2023-11-28T07:04:25.124Z,64.07
2023-11-28T07:06:52.578Z,62.77
2023-11-28T07:09:20.563Z,68.17
2023-11-28T07:11:47.986Z,60.83
2023-11-28T07:14:15.532Z,60.47
2023-11-28T07:16:43.021Z,58.00
2023-11-28T07:19:11.177Z,63.53
2023-11-28T07:21:38.758Z,57.57
2023-11-28T07:24:06.193Z,60.73
2023-11-28T07:26:33.841Z,63.07
2023-11-28T07:29:01.590Z,57.33
2023-11-28T07:31:30.909Z,64.17
2023-11-28T07:33:58.516Z,56.63
2023-11-28T07:36:25.930Z,61.60
2023-11-28T07:38:53.380Z,53.07
2023-11-28T07:41:20.811Z,59.83
2023-11-28T07:43:48.782Z,59.47
2023-11-28T07:46:17.310Z,58.97
2023-11-28T07:48:44.800Z,56.30
2023-11-28T07:51:12.197Z,54.83
2023-11-28T07:53:39.673Z,59.87
2023-11-28T07:56:07.683Z,60.13
2023-11-28T07:58:35.608Z,56.90
2023-11-28T08:01:03.233Z,51.87
2023-11-28T08:03:30.749Z,58.60
2023-11-28T08:05:58.396Z,57.40
2023-11-28T08:08:25.823Z,55.23
2023-11-28T08:10:53.444Z,50.43
2023-11-28T08:13:22.968Z,58.07
2023-11-28T08:15:53.899Z,52.13
2023-11-28T08:18:21.425Z,54.60
2023-11-28T08:20:48.970Z,56.90
2023-11-28T08:23:16.518Z,56.70
2023-11-28T08:25:44.045Z,51.10
2023-11-28T08:28:11.452Z,51.33
2023-11-28T08:30:38.902Z,52.57
2023-11-28T08:33:06.591Z,50.97
2023-11-28T08:35:34.124Z,56.50
2023-11-28T08:38:01.484Z,57.03
2023-11-28T08:40:28.978Z,47.17
2023-11-28T08:42:56.390Z,56.37
2023-11-28T08:45:23.860Z,55.10
2023-11-28T08:47:51.382Z,56.73
2023-11-28T08:50:18.922Z,54.20
2023-11-28T08:52:46.478Z,60.47
2023-11-28T08:55:14.020Z,62.47
2023-11-28T08:57:41.857Z,55.13
2023-11-28T09:00:09.909Z,54.70
2023-11-28T09:02:39.629Z,53.47
2023-11-28T09:05:07.648Z,52.83
2023-11-28T09:07:35.163Z,52.07
2023-11-28T09:10:02.679Z,57.70
2023-11-28T09:12:30.310Z,58.60
2023-11-28T09:14:58.049Z,59.73
2023-11-28T09:17:25.746Z,56.50
2023-11-28T09:19:53.266Z,61.03
2023-11-28T09:22:21.115Z,57.57
2023-11-28T09:24:48.626Z,59.60
2023-11-28T09:27:16.039Z,51.67
2023-11-28T09:29:43.494Z,60.13
2023-11-28T09:32:11.553Z,57.33
2023-11-28T09:34:41.200Z,59.47
2023-11-28T09:37:10.891Z,54.47
2023-11-28T09:39:39.803Z,57.53
2023-11-28T09:42:13.541Z,56.20
2023-11-28T09:44:43.660Z,56.83
2023-11-28T09:47:13.171Z,54.10
2023-11-28T09:49:42.576Z,52.20
2023-11-28T09:52:15.147Z,55.47
2023-11-28T09:54:42.929Z,63.00
2023-11-28T09:57:11.419Z,62.43
2023-11-28T09:59:45.022Z,63.73
2023-11-28T10:02:17.186Z,66.57
2023-11-28T10:04:45.399Z,76.13
2023-11-28T10:07:13.856Z,80.57
2023-11-28T10:09:43.025Z,84.97
2023-11-28T10:12:11.500Z,76.13
2023-11-28T10:14:41.750Z,86.63
2023-11-28T10:17:11.374Z,80.97
2023-11-28T10:19:39.085Z,96.77
2023-11-28T10:22:07.530Z,81.50
2023-11-28T10:24:35.392Z,78.83
2023-11-28T10:27:03.415Z,83.37
2023-11-28T10:29:31.004Z,73.67
2023-11-28T10:31:58.493Z,76.80
2023-11-28T10:34:25.881Z,80.10
2023-11-28T10:36:53.807Z,62.10
2023-11-28T10:39:22.548Z,66.47
2023-11-28T10:41:50.399Z,67.70
2023-11-28T10:44:19.629Z,63.00
2023-11-28T10:46:50.014Z,61.37
2023-11-28T10:49:17.602Z,59.93
2023-11-28T10:51:45.664Z,62.20
2023-11-28T10:54:14.929Z,60.03
2023-11-28T10:56:49.640Z,60.47
2023-11-28T10:59:23.594Z,61.07
2023-11-28T11:01:52.357Z,60.10
2023-11-28T11:04:20.714Z,66.33
2023-11-28T11:06:51.481Z,64.30
2023-11-28T11:09:21.086Z,61.47
2023-11-28T11:11:49.946Z,58.77
2023-11-28T11:14:24.643Z,62.50
2023-11-28T11:16:57.033Z,65.47
2023-11-28T11:19:27.191Z,59.23
2023-11-28T11:22:06.286Z,61.23
2023-11-28T11:24:39.491Z,67.47
2023-11-28T11:27:09.565Z,60.77
2023-11-28T11:29:42.771Z,65.60
2023-11-28T11:32:17.252Z,64.73
2023-11-28T11:34:53.143Z,58.60
2023-11-28T11:37:32.158Z,54.50
2023-11-28T11:40:03.875Z,56.23
2023-11-28T11:42:40.217Z,54.83
2023-11-28T11:45:10.452Z,52.77
2023-11-28T11:47:38.637Z,53.60
2023-11-28T11:50:08.410Z,52.53
2023-11-28T11:52:41.772Z,50.20
2023-11-28T11:55:15.777Z,52.80
2023-11-28T11:57:48.402Z,46.27
2023-11-28T12:00:17.728Z,47.23
2023-11-28T12:02:50.306Z,46.83
2023-11-28T12:05:21.871Z,46.47
2023-11-28T12:07:50.222Z,48.60
2023-11-28T12:10:18.984Z,49.07
2023-11-28T12:12:47.919Z,47.73
2023-11-28T12:15:19.160Z,51.37
2023-11-28T12:17:48.156Z,45.20
2023-11-28T12:20:29.973Z,46.63
2023-11-28T12:23:04.218Z,42.87
2023-11-28T12:25:39.899Z,43.83
2023-11-28T12:28:08.749Z,46.13
2023-11-28T12:30:37.045Z,43.23
2023-11-28T12:33:05.058Z,44.70
2023-11-28T12:35:32.812Z,41.20
2023-11-28T12:38:01.505Z,40.10
2023-11-28T12:40:29.233Z,43.97
2023-11-28T12:43:00.576Z,41.53
2023-11-28T12:45:28.375Z,43.87
2023-11-28T12:48:01.112Z,42.90
2023-11-28T12:50:31.111Z,40.93
2023-11-28T12:52:59.203Z,40.03
2023-11-28T12:55:31.827Z,42.10
2023-11-28T12:57:59.369Z,43.70
2023-11-28T13:00:26.703Z,41.63
2023-11-28T13:02:54.310Z,44.77
2023-11-28T13:05:21.792Z,44.30
2023-11-28T13:07:53.699Z,42.53
2023-11-28T13:10:21.733Z,42.13
2023-11-28T13:12:49.106Z,42.27
2023-11-28T13:15:17.752Z,43.63
2023-11-28T13:17:45.649Z,37.37
2023-11-28T13:20:14.883Z,40.73
2023-11-28T13:22:42.528Z,39.83
2023-11-28T13:25:09.992Z,38.17
2023-11-28T13:27:37.435Z,39.73
2023-11-28T13:30:06.590Z,41.00
2023-11-28T13:32:34.656Z,39.93
2023-11-28T13:35:02.304Z,41.07
2023-11-28T13:37:29.730Z,39.07
2023-11-28T13:39:57.171Z,40.50
2023-11-28T13:42:24.806Z,41.87
2023-11-28T13:44:52.910Z,40.57
2023-11-28T13:47:20.752Z,42.73
2023-11-28T13:49:48.489Z,41.83
2023-11-28T13:52:16.012Z,38.40
2023-11-28T13:54:43.545Z,39.40
2023-11-28T13:57:13.087Z,42.03
2023-11-28T13:59:45.877Z,39.63
2023-11-28T14:02:13.554Z,40.20
2023-11-28T14:04:41.120Z,42.10
2023-11-28T14:07:08.880Z,40.93
2023-11-28T14:09:36.448Z,37.67
2023-11-28T14:12:03.978Z,37.50
2023-11-28T14:14:42.992Z,38.27
2023-11-28T14:17:18.252Z,41.17
2023-11-28T14:19:46.010Z,40.27
2023-11-28T14:22:13.940Z,39.10
2023-11-28T14:24:41.468Z,39.03
2023-11-28T14:27:08.993Z,43.47
2023-11-28T14:29:37.138Z,37.10
2023-11-28T14:32:05.557Z,37.57
2023-11-28T14:34:33.096Z,38.27
2023-11-28T14:37:00.620Z,34.97
2023-11-28T14:39:28.160Z,37.40
2023-11-28T14:41:55.601Z,37.07
2023-11-28T14:44:23.666Z,36.30
2023-11-28T14:46:54.589Z,37.13
2023-11-28T14:49:23.885Z,37.03
2023-11-28T14:51:52.318Z,37.37
2023-11-28T14:54:20.814Z,38.33
2023-11-28T14:56:48.516Z,36.90
2023-11-28T14:59:16.135Z,37.27
2023-11-28T15:01:43.656Z,38.60
2023-11-28T15:04:11.222Z,36.80
2023-11-28T15:06:38.822Z,36.83
2023-11-28T15:09:07.594Z,37.80
2023-11-28T15:11:35.043Z,36.43
2023-11-28T15:14:02.759Z,34.70
2023-11-28T15:16:30.407Z,40.30
2023-11-28T15:18:57.953Z,38.90
2023-11-28T15:21:25.661Z,39.57
2023-11-28T15:23:53.559Z,37.20
2023-11-28T15:26:22.408Z,34.80
2023-11-28T15:28:51.643Z,39.57
2023-11-28T15:31:19.171Z,37.77
2023-11-28T15:33:46.738Z,40.93
2023-11-28T15:36:14.565Z,41.77
2023-11-28T15:38:42.482Z,39.27
2023-11-28T15:41:10.206Z,37.27
2023-11-28T15:43:37.581Z,33.70
2023-11-28T15:46:05.022Z,34.43
2023-11-28T15:48:32.778Z,37.47
2023-11-28T15:51:00.308Z,35.90
2023-11-28T15:53:28.585Z,33.90
2023-11-28T15:55:56.110Z,36.60
2023-11-28T15:58:23.616Z,39.13
2023-11-28T16:00:50.953Z,34.83
2023-11-28T16:03:18.549Z,36.63
2023-11-28T16:05:47.553Z,36.30
2023-11-28T16:08:15.105Z,38.30
2023-11-28T16:10:42.549Z,39.10
2023-11-28T16:13:09.934Z,38.67
2023-11-28T16:15:37.516Z,41.73
2023-11-28T16:18:05.023Z,40.40
2023-11-28T16:20:34.340Z,42.43
2023-11-28T17:16:02.680Z,55.38
2023-11-28T17:18:30.182Z,58.60
2023-11-28T17:20:57.579Z,56.37
2023-11-28T17:23:25.030Z,56.17
2023-11-28T17:25:52.935Z,55.50
2023-11-28T17:28:20.535Z,53.83
2023-11-28T17:30:48.061Z,55.10
2023-11-28T17:33:15.611Z,56.90
2023-11-28T17:35:43.232Z,56.30
2023-11-28T17:38:10.779Z,50.20
2023-11-28T17:40:38.216Z,56.20
2023-11-28T17:43:05.734Z,54.87
2023-11-28T17:45:35.427Z,54.07
2023-11-28T17:48:03.868Z,52.27
2023-11-28T17:50:31.313Z,52.97
2023-11-28T17:52:58.887Z,55.40
2023-11-28T17:55:26.283Z,53.77
2023-11-28T17:57:54.747Z,50.40
2023-11-28T18:00:23.139Z,55.50
2023-11-28T18:02:51.122Z,58.63
2023-11-28T18:05:19.303Z,57.70
2023-11-28T18:07:47.817Z,56.13
2023-11-28T18:10:15.408Z,54.87
2023-11-28T18:12:43.013Z,57.90
2023-11-28T18:15:18.940Z,58.60
2023-11-28T18:17:53.913Z,57.63
2023-11-28T18:20:22.261Z,57.50
2023-11-28T18:22:50.132Z,58.80
2023-11-28T18:25:17.739Z,56.27
2023-11-28T18:27:45.146Z,57.67
2023-11-28T18:30:12.760Z,55.40
2023-11-28T18:32:40.535Z,61.83
2023-11-28T18:35:08.324Z,58.67
2023-11-28T18:37:37.398Z,60.77
2023-11-28T18:40:06.288Z,60.40
2023-11-28T18:42:33.660Z,58.63
2023-11-28T18:45:01.227Z,58.60
2023-11-28T18:47:29.130Z,60.67
2023-11-28T18:49:56.873Z,58.10
2023-11-28T18:52:26.148Z,62.27
2023-11-28T18:54:54.523Z,63.53
2023-11-28T18:57:22.731Z,67.57
2023-11-28T18:59:50.185Z,67.53
2023-11-28T19:02:18.382Z,67.93
2023-11-28T19:04:46.115Z,66.43
2023-11-28T19:07:13.679Z,64.07
2023-11-28T19:09:42.866Z,65.20
2023-11-28T19:12:12.805Z,68.57
2023-11-28T19:14:40.477Z,65.10
2023-11-28T19:17:08.025Z,65.87
2023-11-28T19:19:39.419Z,67.73
2023-11-28T19:22:07.853Z,60.50
2023-11-28T19:24:35.382Z,68.17
2023-11-28T19:27:07.462Z,64.10
2023-11-28T19:29:35.306Z,63.30
2023-11-28T19:32:02.984Z,65.67
2023-11-28T19:34:31.178Z,65.63
2023-11-28T19:36:59.915Z,60.80
2023-11-28T19:39:27.551Z,60.00
2023-11-28T19:41:55.813Z,60.70
2023-11-28T19:44:24.503Z,60.37
2023-11-28T19:46:52.238Z,60.07
2023-11-28T19:49:19.900Z,52.60
2023-11-28T19:51:47.777Z,54.17
2023-11-28T19:54:16.527Z,55.60
2023-11-28T19:56:45.697Z,56.87
2023-11-28T19:59:13.210Z,55.40
2023-11-28T20:01:40.930Z,51.30
2023-11-28T20:04:12.039Z,52.07
2023-11-28T20:06:43.014Z,53.27
2023-11-28T20:09:10.589Z,51.30
2023-11-28T20:11:38.582Z,52.83
2023-11-28T20:14:06.447Z,50.83
2023-11-28T20:16:34.102Z,50.03
2023-11-28T20:19:01.738Z,55.90
2023-11-28T20:21:30.034Z,48.53
2023-11-28T20:23:57.636Z,52.20
2023-11-28T20:26:25.240Z,52.80
2023-11-28T20:28:52.870Z,50.40
2023-11-28T20:31:20.394Z,53.23
2023-11-28T20:33:47.872Z,54.23
2023-11-28T20:36:15.881Z,49.90
2023-11-28T20:38:43.685Z,45.93
2023-11-28T20:41:11.118Z,50.73
2023-11-28T20:43:38.598Z,52.63
2023-11-28T20:46:07.377Z,49.30
2023-11-28T20:48:35.627Z,47.77
2023-11-28T20:51:03.136Z,49.83
2023-11-28T20:53:30.781Z,46.87
2023-11-28T20:55:58.519Z,46.83
2023-11-28T20:58:25.992Z,49.00
2023-11-28T21:00:53.486Z,50.53
2023-11-28T21:03:21.049Z,48.07
2023-11-28T21:05:50.469Z,48.57
2023-11-28T21:08:21.135Z,50.97
2023-11-28T21:10:50.261Z,50.20
2023-11-28T21:13:17.967Z,51.23
2023-11-28T21:15:45.587Z,51.60
2023-11-28T21:18:13.270Z,50.17
2023-11-28T21:20:40.903Z,47.17
2023-11-28T21:23:08.522Z,51.07
2023-11-28T21:25:37.980Z,49.50
2023-11-28T21:28:06.519Z,52.67
2023-11-28T21:30:34.337Z,53.50
2023-11-28T21:33:01.870Z,49.77
2023-11-28T21:35:29.723Z,53.13
2023-11-28T21:37:57.222Z,55.07
2023-11-28T21:40:24.870Z,54.73
2023-11-28T21:42:53.886Z,53.97
2023-11-28T21:45:21.467Z,48.97
2023-11-28T21:47:48.988Z,54.43
2023-11-28T21:50:20.905Z,54.30
2023-11-28T21:52:48.499Z,57.47
2023-11-28T21:55:15.867Z,62.00
2023-11-28T21:57:43.371Z,61.93
2023-11-28T22:00:11.562Z,67.97
2023-11-28T22:02:42.222Z,59.53
2023-11-28T22:05:09.904Z,57.83
2023-11-28T22:07:37.465Z,58.43
2023-11-28T22:10:05.304Z,57.87
2023-11-28T22:12:32.806Z,55.33
2023-11-28T22:15:00.356Z,63.53
2023-11-28T22:17:27.750Z,60.77
2023-11-28T22:19:55.280Z,60.70
2023-11-28T22:22:22.669Z,62.43
2023-11-28T22:24:50.906Z,63.20
2023-11-28T22:27:18.364Z,60.50
2023-11-28T22:29:46.099Z,66.63
2023-11-28T22:32:13.977Z,65.77
2023-11-28T22:34:41.444Z,65.03
2023-11-28T22:37:08.908Z,62.80
2023-11-28T22:39:37.557Z,62.87
2023-11-28T22:42:06.443Z,60.70
2023-11-28T22:44:33.960Z,58.70
2023-11-28T22:47:01.399Z,66.10
2023-11-28T22:49:30.384Z,61.60
2023-11-28T22:51:58.403Z,63.97
2023-11-28T22:54:25.840Z,64.83
2023-11-28T22:56:53.333Z,65.07
2023-11-28T22:59:20.943Z,63.00
2023-11-28T23:01:48.548Z,59.43
2023-11-28T23:04:16.142Z,59.77
2023-11-28T23:06:43.502Z,56.03
2023-11-28T23:09:11.521Z,57.13
2023-11-28T23:11:38.879Z,52.93
2023-11-28T23:14:06.332Z,44.40
2023-11-28T23:16:33.826Z,37.83
2023-11-28T23:19:01.331Z,44.13
2023-11-28T23:21:32.981Z,42.37
2023-11-28T23:24:00.694Z,48.17
2023-11-28T23:26:28.220Z,44.57
2023-11-28T23:28:55.921Z,45.23
2023-11-28T23:31:23.453Z,43.77
2023-11-28T23:33:50.957Z,42.17
2023-11-28T23:36:18.356Z,42.70
2023-11-28T23:38:47.197Z,43.70
2023-11-28T23:41:14.819Z,44.87
2023-11-28T23:43:42.315Z,47.83
2023-11-28T23:46:09.729Z,49.97
2023-11-28T23:48:37.124Z,54.67
2023-11-28T23:51:04.790Z,52.37
2023-11-28T23:53:32.314Z,49.20
2023-11-28T23:55:59.816Z,60.00
2023-11-28T23:58:27.418Z,52.53
